sensor_id;sensor_type;location;lat;lon;timestamp;pressure;altitude;pressure_sealevel;temperature;humidity
4449;BME280;2237;51.870;6.160;2023-02-01T00:00:24;102525.69;;;6.25;0.00
4449;BME280;2237;51.870;6.160;2023-02-01T00:02:51;102516.19;;;6.20;0.00
4449;BME280;2237;51.870;6.160;2023-02-01T00:05:17;102519.56;;;6.16;0.00
4449;BME280;2237;51.870;6.160;2023-02-01T00:07:46;102501.59;;;6.19;0.00
4449;BME280;2237;51.870;6.160;2023-02-01T00:10:13;102505.78;;;6.12;0.00
4449;BME280;2237;51.870;6.160;2023-02-01T00:12:39;102489.56;;;6.16;0.00
4449;BME280;2237;51.870;6.160;2023-02-01T00:15:06;102482.66;;;6.12;0.00
4449;BME280;2237;51.870;6.160;2023-02-01T00:17:33;102490.38;;;6.12;0.00
4449;BME280;2237;51.870;6.160;2023-02-01T00:19:59;102485.22;;;6.09;0.00
4449;BME280;2237;51.870;6.160;2023-02-01T00:22:25;102491.28;;;6.14;0.00
4449;BME280;2237;51.870;6.160;2023-02-01T00:24:52;102478.28;;;6.04;0.00
4449;BME280;2237;51.870;6.160;2023-02-01T00:27:18;102472.44;;;6.17;0.00
4449;BME280;2237;51.870;6.160;2023-02-01T00:29:47;102471.63;;;6.21;0.00
4449;BME280;2237;51.870;6.160;2023-02-01T00:32:13;102471.50;;;6.10;0.00
4449;BME280;2237;51.870;6.160;2023-02-01T00:34:40;102477.59;;;6.18;0.00
4449;BME280;2237;51.870;6.160;2023-02-01T00:37:06;102477.47;;;6.06;0.00
4449;BME280;2237;51.870;6.160;2023-02-01T00:39:33;102466.44;;;6.16;0.00
4449;BME280;2237;51.870;6.160;2023-02-01T00:42:00;102468.22;;;6.25;0.00
4449;BME280;2237;51.870;6.160;2023-02-01T00:44:27;102464.81;;;6.28;0.00
4449;BME280;2237;51.870;6.160;2023-02-01T00:46:54;102475.91;;;6.20;0.00
4449;BME280;2237;51.870;6.160;2023-02-01T00:49:20;102459.69;;;6.28;0.00
4449;BME280;2237;51.870;6.160;2023-02-01T00:51:47;102461.47;;;6.35;0.00
4449;BME280;2237;51.870;6.160;2023-02-01T00:54:13;102461.53;;;6.38;0.00
4449;BME280;2237;51.870;6.160;2023-02-01T00:56:39;102464.97;;;6.40;0.00
4449;BME280;2237;51.870;6.160;2023-02-01T00:59:06;102452.97;;;6.40;0.00
4449;BME280;2237;51.870;6.160;2023-02-01T01:01:32;102457.25;;;6.40;0.00
4449;BME280;2237;51.870;6.160;2023-02-01T01:03:59;102447.81;;;6.42;0.00
4449;BME280;2237;51.870;6.160;2023-02-01T01:06:28;102453.81;;;6.39;0.00
4449;BME280;2237;51.870;6.160;2023-02-01T01:08:56;102449.53;;;6.40;0.00
4449;BME280;2237;51.870;6.160;2023-02-01T01:11:25;102458.94;;;6.38;0.00
4449;BME280;2237;51.870;6.160;2023-02-01T01:13:54;102459.91;;;6.49;0.00
4449;BME280;2237;51.870;6.160;2023-02-01T01:16:22;102463.31;;;6.46;0.00
4449;BME280;2237;51.870;6.160;2023-02-01T01:18:49;102464.22;;;6.50;0.00
4449;BME280;2237;51.870;6.160;2023-02-01T01:21:16;102455.63;;;6.51;0.00
4449;BME280;2237;51.870;6.160;2023-02-01T01:23:44;102453.88;;;6.48;0.00
4449;BME280;2237;51.870;6.160;2023-02-01T01:26:16;102468.38;;;6.37;0.00
4449;BME280;2237;51.870;6.160;2023-02-01T01:28:44;102449.56;;;6.43;0.00
4449;BME280;2237;51.870;6.160;2023-02-01T01:31:12;102440.91;;;6.36;0.00
4449;BME280;2237;51.870;6.160;2023-02-01T01:33:39;102444.31;;;6.34;0.00
4449;BME280;2237;51.870;6.160;2023-02-01T01:36:06;102447.69;;;6.28;0.00
4449;BME280;2237;51.870;6.160;2023-02-01T01:38:34;102445.16;;;6.30;0.00
4449;BME280;2237;51.870;6.160;2023-02-01T01:41:00;102443.41;;;6.29;0.00
4449;BME280;2237;51.870;6.160;2023-02-01T01:43:46;102443.41;;;6.29;0.00
4449;BME280;2237;51.870;6.160;2023-02-01T01:46:17;102445.19;;;6.36;0.00
4449;BME280;2237;51.870;6.160;2023-02-01T01:48:44;102429.72;;;6.30;0.00
4449;BME280;2237;51.870;6.160;2023-02-01T01:51:13;102430.47;;;6.19;0.00
4449;BME280;2237;51.870;6.160;2023-02-01T01:53:43;102443.47;;;6.35;0.00
4449;BME280;2237;51.870;6.160;2023-02-01T01:56:11;102444.13;;;6.15;0.00
4449;BME280;2237;51.870;6.160;2023-02-01T01:58:39;102433.94;;;6.23;0.00
4449;BME280;2237;51.870;6.160;2023-02-01T02:01:06;102438.16;;;6.16;0.00
4449;BME280;2237;51.870;6.160;2023-02-01T02:03:36;102438.16;;;6.15;0.00
4449;BME280;2237;51.870;6.160;2023-02-01T02:06:06;102440.81;;;6.25;0.00
4449;BME280;2237;51.870;6.160;2023-02-01T02:08:36;102446.78;;;6.24;0.00
4449;BME280;2237;51.870;6.160;2023-02-01T02:11:03;102441.56;;;6.15;0.00
4449;BME280;2237;51.870;6.160;2023-02-01T02:13:35;102432.97;;;6.13;0.00
4449;BME280;2237;51.870;6.160;2023-02-01T02:24:55;102420.19;;;6.19;0.00
4449;BME280;2237;51.870;6.160;2023-02-01T02:30:34;102416.75;;;6.19;0.00
4449;BME280;2237;51.870;6.160;2023-02-01T02:33:55;102423.56;;;6.15;0.00
4449;BME280;2237;51.870;6.160;2023-02-01T02:39:01;102407.38;;;6.25;0.00
4449;BME280;2237;51.870;6.160;2023-02-01T02:41:38;102411.69;;;6.27;0.00
4449;BME280;2237;51.870;6.160;2023-02-01T02:44:49;102415.13;;;6.29;0.00
4449;BME280;2237;51.870;6.160;2023-02-01T02:53:51;102395.50;;;6.35;0.00
4449;BME280;2237;51.870;6.160;2023-02-01T02:56:38;102397.22;;;6.39;0.00
4449;BME280;2237;51.870;6.160;2023-02-01T02:59:26;102388.75;;;6.49;0.00
4449;BME280;2237;51.870;6.160;2023-02-01T03:02:13;102387.88;;;6.49;0.00
4449;BME280;2237;51.870;6.160;2023-02-01T03:04:59;102376.78;;;6.53;0.00
4449;BME280;2237;51.870;6.160;2023-02-01T03:21:25;102344.09;;;6.41;0.00
4449;BME280;2237;51.870;6.160;2023-02-01T03:23:53;102352.72;;;6.49;0.00
4449;BME280;2237;51.870;6.160;2023-02-01T03:26:22;102340.75;;;6.50;0.00
4449;BME280;2237;51.870;6.160;2023-02-01T03:28:55;102337.22;;;6.40;0.00
4449;BME280;2237;51.870;6.160;2023-02-01T03:31:23;102336.34;;;6.40;0.00
4449;BME280;2237;51.870;6.160;2023-02-01T03:33:50;102337.16;;;6.30;0.00
4449;BME280;2237;51.870;6.160;2023-02-01T03:36:37;102352.63;;;6.39;0.00
4449;BME280;2237;51.870;6.160;2023-02-01T03:39:22;102352.69;;;6.45;0.00
4449;BME280;2237;51.870;6.160;2023-02-01T03:41:54;102345.00;;;6.51;0.00
4449;BME280;2237;51.870;6.160;2023-02-01T03:49:24;102358.63;;;6.35;0.00
4449;BME280;2237;51.870;6.160;2023-02-01T03:51:53;102359.44;;;6.34;0.00
4449;BME280;2237;51.870;6.160;2023-02-01T03:54:20;102358.75;;;6.50;0.00
4449;BME280;2237;51.870;6.160;2023-02-01T03:56:48;102362.94;;;6.40;0.00
4449;BME280;2237;51.870;6.160;2023-02-01T03:59:14;102369.91;;;6.52;0.00
4449;BME280;2237;51.870;6.160;2023-02-01T04:01:41;102370.72;;;6.48;0.00
4449;BME280;2237;51.870;6.160;2023-02-01T04:04:07;102365.66;;;6.60;0.00
4449;BME280;2237;51.870;6.160;2023-02-01T04:06:35;102387.84;;;6.46;0.00
4449;BME280;2237;51.870;6.160;2023-02-01T04:09:02;102358.75;;;6.54;0.00
4449;BME280;2237;51.870;6.160;2023-02-01T04:11:28;102350.19;;;6.52;0.00
4449;BME280;2237;51.870;6.160;2023-02-01T04:13:55;102357.06;;;6.56;0.00
4449;BME280;2237;51.870;6.160;2023-02-01T04:16:21;102359.56;;;6.50;0.00
4449;BME280;2237;51.870;6.160;2023-02-01T04:18:47;102363.88;;;6.47;0.00
4449;BME280;2237;51.870;6.160;2023-02-01T04:21:14;102350.09;;;6.42;0.00
4449;BME280;2237;51.870;6.160;2023-02-01T04:23:40;102362.13;;;6.44;0.00
4449;BME280;2237;51.870;6.160;2023-02-01T04:26:06;102361.97;;;6.28;0.00
4449;BME280;2237;51.870;6.160;2023-02-01T04:28:33;102353.41;;;6.29;0.00
4449;BME280;2237;51.870;6.160;2023-02-01T04:30:59;102355.19;;;6.39;0.00
4449;BME280;2237;51.870;6.160;2023-02-01T04:33:26;102352.56;;;6.31;0.00
4449;BME280;2237;51.870;6.160;2023-02-01T04:35:52;102369.72;;;6.29;0.00
4449;BME280;2237;51.870;6.160;2023-02-01T04:38:18;102370.66;;;6.42;0.00
4449;BME280;2237;51.870;6.160;2023-02-01T04:40:47;102361.16;;;6.32;0.00
4449;BME280;2237;51.870;6.160;2023-02-01T04:43:13;102359.38;;;6.23;0.00
4449;BME280;2237;51.870;6.160;2023-02-01T04:45:39;102363.69;;;6.25;0.00
4449;BME280;2237;51.870;6.160;2023-02-01T04:48:06;102369.69;;;6.28;0.00
4449;BME280;2237;51.870;6.160;2023-02-01T04:50:32;102373.09;;;6.25;0.00
4449;BME280;2237;51.870;6.160;2023-02-01T04:52:58;102361.09;;;6.21;0.00
4449;BME280;2237;51.870;6.160;2023-02-01T04:55:25;102373.97;;;6.25;0.00
4449;BME280;2237;51.870;6.160;2023-02-01T04:57:51;102375.66;;;6.25;0.00
4449;BME280;2237;51.870;6.160;2023-02-01T05:00:18;102374.06;;;6.38;0.00
4449;BME280;2237;51.870;6.160;2023-02-01T05:02:44;102387.78;;;6.37;0.00
4449;BME280;2237;51.870;6.160;2023-02-01T05:05:10;102375.81;;;6.40;0.00
4449;BME280;2237;51.870;6.160;2023-02-01T05:07:37;102370.69;;;6.45;0.00
4449;BME280;2237;51.870;6.160;2023-02-01T05:10:03;102357.09;;;6.58;0.00
4449;BME280;2237;51.870;6.160;2023-02-01T05:12:30;102350.97;;;6.44;0.00
4449;BME280;2237;51.870;6.160;2023-02-01T05:15:14;102376.72;;;6.47;0.00
4449;BME280;2237;51.870;6.160;2023-02-01T05:17:41;102355.41;;;6.61;0.00
4449;BME280;2237;51.870;6.160;2023-02-01T05:20:08;102354.47;;;6.53;0.00
4449;BME280;2237;51.870;6.160;2023-02-01T05:22:35;102357.88;;;6.51;0.00
4449;BME280;2237;51.870;6.160;2023-02-01T05:25:01;102362.16;;;6.50;0.00
4449;BME280;2237;51.870;6.160;2023-02-01T05:27:29;102358.88;;;6.71;0.00
4449;BME280;2237;51.870;6.160;2023-02-01T05:29:56;102360.56;;;6.64;0.00
4449;BME280;2237;51.870;6.160;2023-02-01T05:32:23;102361.44;;;6.66;0.00
4449;BME280;2237;51.870;6.160;2023-02-01T05:34:49;102339.97;;;6.64;0.00
4449;BME280;2237;51.870;6.160;2023-02-01T05:37:15;102340.84;;;6.68;0.00
4449;BME280;2237;51.870;6.160;2023-02-01T05:39:42;102352.88;;;6.72;0.00
4449;BME280;2237;51.870;6.160;2023-02-01T05:42:08;102359.69;;;6.65;0.00
4449;BME280;2237;51.870;6.160;2023-02-01T05:44:37;102353.75;;;6.74;0.00
4449;BME280;2237;51.870;6.160;2023-02-01T05:47:03;102348.59;;;6.74;0.00
4449;BME280;2237;51.870;6.160;2023-02-01T05:49:29;102353.75;;;6.74;0.00
4449;BME280;2237;51.870;6.160;2023-02-01T05:51:56;102350.44;;;6.90;0.00
4449;BME280;2237;51.870;6.160;2023-02-01T05:54:25;102352.97;;;6.84;0.00
4449;BME280;2237;51.870;6.160;2023-02-01T05:56:51;102358.09;;;6.81;0.00
4449;BME280;2237;51.870;6.160;2023-02-01T05:59:18;102360.63;;;6.76;0.00
4449;BME280;2237;51.870;6.160;2023-02-01T06:01:44;102365.88;;;6.87;0.00
4449;BME280;2237;51.870;6.160;2023-02-01T06:04:10;102354.66;;;6.85;0.00
4449;BME280;2237;51.870;6.160;2023-02-01T06:06:37;102353.06;;;6.96;0.00
4449;BME280;2237;51.870;6.160;2023-02-01T06:09:03;102360.69;;;6.81;0.00
4449;BME280;2237;51.870;6.160;2023-02-01T06:11:30;102358.16;;;6.90;0.00
4449;BME280;2237;51.870;6.160;2023-02-01T06:13:58;102358.06;;;6.78;0.00
4449;BME280;2237;51.870;6.160;2023-02-01T06:16:24;102353.81;;;6.78;0.00
4449;BME280;2237;51.870;6.160;2023-02-01T06:18:51;102356.47;;;6.97;0.00
4449;BME280;2237;51.870;6.160;2023-02-01T06:21:17;102353.06;;;7.01;0.00
4449;BME280;2237;51.870;6.160;2023-02-01T06:23:51;102355.59;;;6.90;0.00
4449;BME280;2237;51.870;6.160;2023-02-01T06:26:17;102359.03;;;6.92;0.00
4449;BME280;2237;51.870;6.160;2023-02-01T06:28:44;102359.00;;;6.85;0.00
4449;BME280;2237;51.870;6.160;2023-02-01T06:31:11;102381.31;;;6.90;0.00
4449;BME280;2237;51.870;6.160;2023-02-01T06:33:38;102377.06;;;6.97;0.00
4449;BME280;2237;51.870;6.160;2023-02-01T06:36:06;102370.19;;;6.97;0.00
4449;BME280;2237;51.870;6.160;2023-02-01T06:38:34;102372.78;;;6.96;0.00
4449;BME280;2237;51.870;6.160;2023-02-01T06:41:01;102368.41;;;6.86;0.00
4449;BME280;2237;51.870;6.160;2023-02-01T06:43:28;102361.53;;;6.83;0.00
4449;BME280;2237;51.870;6.160;2023-02-01T06:46:00;102368.41;;;6.81;0.00
4449;BME280;2237;51.870;6.160;2023-02-01T06:48:27;102362.47;;;6.94;0.00
4449;BME280;2237;51.870;6.160;2023-02-01T06:50:53;102371.00;;;6.89;0.00
4449;BME280;2237;51.870;6.160;2023-02-01T06:53:20;102380.53;;;7.02;0.00
4449;BME280;2237;51.870;6.160;2023-02-01T06:55:56;102373.63;;;6.93;0.00
4449;BME280;2237;51.870;6.160;2023-02-01T06:58:23;102390.81;;;6.99;0.00
4449;BME280;2237;51.870;6.160;2023-02-01T07:00:50;102373.66;;;7.01;0.00
4449;BME280;2237;51.870;6.160;2023-02-01T07:03:17;102373.72;;;7.10;0.00
4449;BME280;2237;51.870;6.160;2023-02-01T07:05:43;102383.13;;;7.06;0.00
4449;BME280;2237;51.870;6.160;2023-02-01T07:08:09;102380.53;;;7.03;0.00
4449;BME280;2237;51.870;6.160;2023-02-01T07:10:37;102386.56;;;7.08;0.00
4449;BME280;2237;51.870;6.160;2023-02-01T07:13:04;102389.97;;;7.01;0.00
4449;BME280;2237;51.870;6.160;2023-02-01T07:15:30;102386.50;;;6.96;0.00
4449;BME280;2237;51.870;6.160;2023-02-01T07:17:56;102381.41;;;7.08;0.00
4449;BME280;2237;51.870;6.160;2023-02-01T07:20:23;102387.47;;;7.10;0.00
4449;BME280;2237;51.870;6.160;2023-02-01T07:22:55;102386.56;;;7.02;0.00
4449;BME280;2237;51.870;6.160;2023-02-01T07:25:22;102368.53;;;7.02;0.00
4449;BME280;2237;51.870;6.160;2023-02-01T07:27:48;102367.69;;;7.06;0.00
4449;BME280;2237;51.870;6.160;2023-02-01T07:30:15;102381.41;;;7.05;0.00
4449;BME280;2237;51.870;6.160;2023-02-01T07:32:41;102386.56;;;7.08;0.00
4449;BME280;2237;51.870;6.160;2023-02-01T07:35:08;102387.47;;;7.10;0.00
4449;BME280;2237;51.870;6.160;2023-02-01T07:37:34;102386.59;;;7.10;0.00
4449;BME280;2237;51.870;6.160;2023-02-01T07:40:01;102380.56;;;7.09;0.00
4449;BME280;2237;51.870;6.160;2023-02-01T07:42:27;102384.03;;;7.13;0.00
4449;BME280;2237;51.870;6.160;2023-02-01T07:44:53;102380.50;;;6.97;0.00
4449;BME280;2237;51.870;6.160;2023-02-01T07:47:20;102384.81;;;7.03;0.00
4449;BME280;2237;51.870;6.160;2023-02-01T07:49:46;102382.25;;;7.03;0.00
4449;BME280;2237;51.870;6.160;2023-02-01T07:52:13;102389.13;;;7.05;0.00
4449;BME280;2237;51.870;6.160;2023-02-01T07:54:42;102397.75;;;7.15;0.00
4449;BME280;2237;51.870;6.160;2023-02-01T07:57:09;102388.28;;;7.06;0.00
4449;BME280;2237;51.870;6.160;2023-02-01T07:59:37;102385.69;;;7.02;0.00
4449;BME280;2237;51.870;6.160;2023-02-01T08:02:27;102392.59;;;7.07;0.00
4449;BME280;2237;51.870;6.160;2023-02-01T08:04:53;102390.84;;;7.02;0.00
4449;BME280;2237;51.870;6.160;2023-02-01T08:07:19;102398.63;;;7.12;0.00
4449;BME280;2237;51.870;6.160;2023-02-01T08:09:46;102392.59;;;7.12;0.00
4449;BME280;2237;51.870;6.160;2023-02-01T08:12:12;102385.75;;;7.14;0.00
4449;BME280;2237;51.870;6.160;2023-02-01T08:14:39;102384.03;;;7.14;0.00
4449;BME280;2237;51.870;6.160;2023-02-01T08:17:06;102406.38;;;7.18;0.00
4449;BME280;2237;51.870;6.160;2023-02-01T08:19:33;102398.63;;;7.12;0.00
4449;BME280;2237;51.870;6.160;2023-02-01T08:22:00;102402.97;;;7.24;0.00
4449;BME280;2237;51.870;6.160;2023-02-01T08:24:28;102403.78;;;7.11;0.00
4449;BME280;2237;51.870;6.160;2023-02-01T08:26:54;102387.50;;;7.16;0.00
4449;BME280;2237;51.870;6.160;2023-02-01T08:29:20;102405.47;;;7.10;0.00
4449;BME280;2237;51.870;6.160;2023-02-01T08:31:47;102419.19;;;7.06;0.00
4449;BME280;2237;51.870;6.160;2023-02-01T08:34:13;102424.25;;;6.94;0.00
4449;BME280;2237;51.870;6.160;2023-02-01T08:36:39;102424.31;;;7.06;0.00
4449;BME280;2237;51.870;6.160;2023-02-01T08:39:06;102412.34;;;7.10;0.00
4449;BME280;2237;51.870;6.160;2023-02-01T08:41:36;102417.47;;;7.11;0.00
4449;BME280;2237;51.870;6.160;2023-02-01T08:44:03;102434.59;;;6.99;0.00
4449;BME280;2237;51.870;6.160;2023-02-01T08:46:29;102409.69;;;6.96;0.00
4449;BME280;2237;51.870;6.160;2023-02-01T08:48:56;102412.34;;;7.14;0.00
4449;BME280;2237;51.870;6.160;2023-02-01T08:51:23;102403.75;;;7.12;0.00
4449;BME280;2237;51.870;6.160;2023-02-01T08:53:50;102396.94;;;7.19;0.00
4449;BME280;2237;51.870;6.160;2023-02-01T08:56:17;102393.44;;;7.06;0.00
4449;BME280;2237;51.870;6.160;2023-02-01T08:58:44;102395.94;;;6.93;0.00
4449;BME280;2237;51.870;6.160;2023-02-01T09:01:13;102393.44;;;7.09;0.00
4449;BME280;2237;51.870;6.160;2023-02-01T09:03:40;102389.19;;;7.13;0.00
4449;BME280;2237;51.870;6.160;2023-02-01T09:06:10;102391.78;;;7.17;0.00
4449;BME280;2237;51.870;6.160;2023-02-01T09:08:37;102384.13;;;7.35;0.00
4449;BME280;2237;51.870;6.160;2023-02-01T09:11:06;102388.41;;;7.32;0.00
4449;BME280;2237;51.870;6.160;2023-02-01T09:13:33;102370.47;;;7.49;0.00
4449;BME280;2237;51.870;6.160;2023-02-01T09:16:03;102368.75;;;7.48;0.00
4449;BME280;2237;51.870;6.160;2023-02-01T09:18:30;102376.47;;;7.48;0.00
4449;BME280;2237;51.870;6.160;2023-02-01T09:20:57;102366.19;;;7.57;0.00
4449;BME280;2237;51.870;6.160;2023-02-01T09:23:23;102373.06;;;7.58;0.00
4449;BME280;2237;51.870;6.160;2023-02-01T09:25:50;102361.94;;;7.60;0.00
4449;BME280;2237;51.870;6.160;2023-02-01T09:28:18;102377.28;;;7.40;0.00
4449;BME280;2237;51.870;6.160;2023-02-01T09:30:45;102368.75;;;7.48;0.00
4449;BME280;2237;51.870;6.160;2023-02-01T09:33:11;102367.00;;;7.47;0.00
4449;BME280;2237;51.870;6.160;2023-02-01T09:35:38;102363.59;;;7.51;0.00
4449;BME280;2237;51.870;6.160;2023-02-01T09:38:04;102367.03;;;7.53;0.00
4449;BME280;2237;51.870;6.160;2023-02-01T09:40:33;102355.03;;;7.64;0.00
4449;BME280;2237;51.870;6.160;2023-02-01T09:43:18;102360.19;;;7.64;0.00
4449;BME280;2237;51.870;6.160;2023-02-01T09:48:54;102363.66;;;7.73;0.00
4449;BME280;2237;51.870;6.160;2023-02-01T09:51:33;102381.78;;;8.04;0.00
4449;BME280;2237;51.870;6.160;2023-02-01T09:56:53;102366.34;;;8.47;0.00
4449;BME280;2237;51.870;6.160;2023-02-01T09:59:41;102369.81;;;8.46;0.00
4449;BME280;2237;51.870;6.160;2023-02-01T10:02:13;102391.31;;;8.39;0.00
4449;BME280;2237;51.870;6.160;2023-02-01T10:04:41;102380.97;;;8.82;0.00
4449;BME280;2237;51.870;6.160;2023-02-01T10:09:59;102372.38;;;8.54;0.00
4449;BME280;2237;51.870;6.160;2023-02-01T10:12:50;102376.69;;;8.60;0.00
4449;BME280;2237;51.870;6.160;2023-02-01T10:20:56;102374.13;;;8.55;0.00
4449;BME280;2237;51.870;6.160;2023-02-01T10:23:35;102373.25;;;8.48;0.00
4449;BME280;2237;51.870;6.160;2023-02-01T10:26:22;102356.03;;;8.31;0.00
4449;BME280;2237;51.870;6.160;2023-02-01T10:28:56;102378.41;;;8.27;0.00
4449;BME280;2237;51.870;6.160;2023-02-01T10:31:28;102368.09;;;8.38;0.00
4449;BME280;2237;51.870;6.160;2023-02-01T10:34:03;102359.50;;;8.46;0.00
4449;BME280;2237;51.870;6.160;2023-02-01T10:36:41;102368.09;;;8.35;0.00
4449;BME280;2237;51.870;6.160;2023-02-01T10:39:09;102360.34;;;8.45;0.00
4449;BME280;2237;51.870;6.160;2023-02-01T10:41:38;102362.91;;;8.33;0.00
4449;BME280;2237;51.870;6.160;2023-02-01T10:44:11;102359.50;;;8.33;0.00
4449;BME280;2237;51.870;6.160;2023-02-01T10:46:39;102368.97;;;8.35;0.00
4449;BME280;2237;51.870;6.160;2023-02-01T10:49:13;102370.63;;;8.26;0.00
4449;BME280;2237;51.870;6.160;2023-02-01T10:51:47;102345.72;;;8.10;0.00
4449;BME280;2237;51.870;6.160;2023-02-01T10:54:32;102350.88;;;8.10;0.00
4449;BME280;2237;51.870;6.160;2023-02-01T10:56:58;102349.97;;;7.88;0.00
4449;BME280;2237;51.870;6.160;2023-02-01T10:59:28;102354.25;;;7.93;0.00
4449;BME280;2237;51.870;6.160;2023-02-01T11:02:00;102353.41;;;7.94;0.00
4449;BME280;2237;51.870;6.160;2023-02-01T11:04:33;102371.44;;;7.87;0.00
4449;BME280;2237;51.870;6.160;2023-02-01T11:07:16;102368.00;;;7.83;0.00
4449;BME280;2237;51.870;6.160;2023-02-01T11:09:49;102361.09;;;7.72;0.00
4449;BME280;2237;51.870;6.160;2023-02-01T11:12:36;102360.19;;;7.56;0.00
4449;BME280;2237;51.870;6.160;2023-02-01T11:15:22;102360.16;;;7.50;0.00
4449;BME280;2237;51.870;6.160;2023-02-01T11:17:51;102361.84;;;7.44;0.00
4449;BME280;2237;51.870;6.160;2023-02-01T11:20:21;102338.66;;;7.44;0.00
4449;BME280;2237;51.870;6.160;2023-02-01T11:22:54;102330.97;;;7.51;0.00
4449;BME280;2237;51.870;6.160;2023-02-01T11:25:22;102344.78;;;7.71;0.00
4449;BME280;2237;51.870;6.160;2023-02-01T11:27:53;102343.94;;;7.83;0.00
4449;BME280;2237;51.870;6.160;2023-02-01T11:30:38;102327.59;;;7.81;0.00
4449;BME280;2237;51.870;6.160;2023-02-01T11:33:12;102321.59;;;7.94;0.00
4449;BME280;2237;51.870;6.160;2023-02-01T11:35:40;102316.44;;;7.88;0.00
4449;BME280;2237;51.870;6.160;2023-02-01T11:40:44;102307.00;;;7.88;0.00
4449;BME280;2237;51.870;6.160;2023-02-01T11:43:18;102298.41;;;7.88;0.00
4449;BME280;2237;51.870;6.160;2023-02-01T11:45:59;102288.94;;;7.90;0.00
4449;BME280;2237;51.870;6.160;2023-02-01T11:48:28;102306.13;;;7.97;0.00
4449;BME280;2237;51.870;6.160;2023-02-01T11:53:56;102317.25;;;7.67;0.00
4449;BME280;2237;51.870;6.160;2023-02-01T11:56:32;102308.66;;;7.65;0.00
4449;BME280;2237;51.870;6.160;2023-02-01T12:01:43;102315.50;;;7.56;0.00
4449;BME280;2237;51.870;6.160;2023-02-01T12:13:24;102322.41;;;7.61;0.00
4449;BME280;2237;51.870;6.160;2023-02-01T12:16:06;102300.94;;;7.70;0.00
4449;BME280;2237;51.870;6.160;2023-02-01T12:21:55;102299.25;;;7.69;0.00
4449;BME280;2237;51.870;6.160;2023-02-01T12:32:49;102289.78;;;8.01;0.00
4449;BME280;2237;51.870;6.160;2023-02-01T12:43:18;102294.03;;;8.81;0.00
4449;BME280;2237;51.870;6.160;2023-02-01T12:45:56;102287.19;;;8.75;0.00
4449;BME280;2237;51.870;6.160;2023-02-01T12:48:29;102288.94;;;8.67;0.00
4449;BME280;2237;51.870;6.160;2023-02-01T12:51:00;102292.38;;;8.62;0.00
4449;BME280;2237;51.870;6.160;2023-02-01T12:53:50;102273.44;;;8.61;0.00
4449;BME280;2237;51.870;6.160;2023-02-01T12:56:31;102272.53;;;8.82;0.00
4449;BME280;2237;51.870;6.160;2023-02-01T12:59:02;102276.88;;;8.69;0.00
4449;BME280;2237;51.870;6.160;2023-02-01T13:02:04;102273.47;;;8.49;0.00
4449;BME280;2237;51.870;6.160;2023-02-01T13:04:33;102284.63;;;8.65;0.00
4449;BME280;2237;51.870;6.160;2023-02-01T13:09:34;102268.28;;;8.64;0.00
4449;BME280;2237;51.870;6.160;2023-02-01T13:12:11;102280.34;;;8.61;0.00
4449;BME280;2237;51.870;6.160;2023-02-01T13:14:47;102279.47;;;8.68;0.00
4449;BME280;2237;51.870;6.160;2023-02-01T13:17:20;102290.69;;;8.50;0.00
4449;BME280;2237;51.870;6.160;2023-02-01T13:20:02;102282.06;;;8.51;0.00
4449;BME280;2237;51.870;6.160;2023-02-01T13:22:45;102282.06;;;8.36;0.00
4449;BME280;2237;51.870;6.160;2023-02-01T13:25:18;102278.66;;;8.38;0.00
4449;BME280;2237;51.870;6.160;2023-02-01T13:27:48;102285.53;;;8.36;0.00
4449;BME280;2237;51.870;6.160;2023-02-01T13:30:20;102283.78;;;8.25;0.00
4449;BME280;2237;51.870;6.160;2023-02-01T13:36:28;102280.34;;;8.24;0.00
4449;BME280;2237;51.870;6.160;2023-02-01T13:42:01;102269.16;;;8.07;0.00
4449;BME280;2237;51.870;6.160;2023-02-01T13:44:34;102286.34;;;8.25;0.00
4449;BME280;2237;51.870;6.160;2023-02-01T13:47:13;102282.94;;;8.42;0.00
4449;BME280;2237;51.870;6.160;2023-02-01T13:49:43;102287.25;;;8.46;0.00
4449;BME280;2237;51.870;6.160;2023-02-01T13:52:25;102286.41;;;8.38;0.00
4449;BME280;2237;51.870;6.160;2023-02-01T13:55:02;102287.22;;;8.62;0.00
4449;BME280;2237;51.870;6.160;2023-02-01T13:57:37;102291.53;;;8.52;0.00
4449;BME280;2237;51.870;6.160;2023-02-01T14:00:07;102295.84;;;8.50;0.00
4449;BME280;2237;51.870;6.160;2023-02-01T14:05:09;102299.25;;;8.60;0.00
4449;BME280;2237;51.870;6.160;2023-02-01T14:07:36;102304.44;;;8.47;0.00
4449;BME280;2237;51.870;6.160;2023-02-01T14:21:24;102318.16;;;8.71;0.00
4449;BME280;2237;51.870;6.160;2023-02-01T14:26:41;102305.25;;;8.75;0.00
4449;BME280;2237;51.870;6.160;2023-02-01T14:47:46;102315.53;;;8.92;0.00
4449;BME280;2237;51.870;6.160;2023-02-01T14:50:30;102303.47;;;9.01;0.00
4449;BME280;2237;51.870;6.160;2023-02-01T14:55:55;102306.09;;;8.91;0.00
4449;BME280;2237;51.870;6.160;2023-02-01T15:01:13;102310.38;;;8.93;0.00
4449;BME280;2237;51.870;6.160;2023-02-01T15:03:47;102312.91;;;9.01;0.00
4449;BME280;2237;51.870;6.160;2023-02-01T15:06:22;102307.81;;;8.83;0.00
4449;BME280;2237;51.870;6.160;2023-02-01T15:08:56;102311.28;;;8.82;0.00
4449;BME280;2237;51.870;6.160;2023-02-01T15:11:23;102307.81;;;8.81;0.00
4449;BME280;2237;51.870;6.160;2023-02-01T15:13:51;102312.97;;;8.86;0.00
4449;BME280;2237;51.870;6.160;2023-02-01T15:16:22;102324.16;;;8.86;0.00
4449;BME280;2237;51.870;6.160;2023-02-01T15:18:49;102307.81;;;8.80;0.00
4449;BME280;2237;51.870;6.160;2023-02-01T15:21:19;102310.41;;;8.81;0.00
4449;BME280;2237;51.870;6.160;2023-02-01T15:24:10;102307.81;;;8.78;0.00
4449;BME280;2237;51.870;6.160;2023-02-01T15:26:37;102308.69;;;8.80;0.00
4449;BME280;2237;51.870;6.160;2023-02-01T15:29:04;102300.97;;;8.76;0.00
4449;BME280;2237;51.870;6.160;2023-02-01T15:31:33;102307.78;;;8.86;0.00
4449;BME280;2237;51.870;6.160;2023-02-01T15:34:00;102299.19;;;8.82;0.00
4449;BME280;2237;51.870;6.160;2023-02-01T15:36:26;102308.72;;;8.64;0.00
4449;BME280;2237;51.870;6.160;2023-02-01T15:39:18;102310.44;;;8.68;0.00
4449;BME280;2237;51.870;6.160;2023-02-01T15:41:48;102306.13;;;8.76;0.00
4449;BME280;2237;51.870;6.160;2023-02-01T15:44:19;102289.81;;;8.52;0.00
4449;BME280;2237;51.870;6.160;2023-02-01T15:46:48;102294.97;;;8.42;0.00
4449;BME280;2237;51.870;6.160;2023-02-01T15:49:32;102288.94;;;8.58;0.00
4449;BME280;2237;51.870;6.160;2023-02-01T15:52:00;102301.84;;;8.53;0.00
4449;BME280;2237;51.870;6.160;2023-02-01T15:55:04;102307.84;;;8.60;0.00
4449;BME280;2237;51.870;6.160;2023-02-01T15:57:32;102351.75;;;8.42;0.00
4449;BME280;2237;51.870;6.160;2023-02-01T16:00:03;102331.97;;;8.48;0.00
4449;BME280;2237;51.870;6.160;2023-02-01T16:02:35;102351.75;;;8.56;0.00
4449;BME280;2237;51.870;6.160;2023-02-01T16:05:05;102348.31;;;8.55;0.00
4449;BME280;2237;51.870;6.160;2023-02-01T16:07:33;102356.03;;;8.47;0.00
4449;BME280;2237;51.870;6.160;2023-02-01T16:10:02;102359.47;;;8.75;0.00